sensor_id;sensor_type;location;lat;lon;timestamp;P1;durP1;ratioP1;P2;durP2;ratioP2
2824;SDS011;1420;51.324;12.344;2023-02-15T00:02:03;283.90;;;265.22;;
2824;SDS011;1420;51.324;12.344;2023-02-15T00:04:31;374.08;;;349.47;;
2824;SDS011;1420;51.324;12.344;2023-02-15T00:07:03;353.98;;;329.72;;
2824;SDS011;1420;51.324;12.344;2023-02-15T00:09:31;304.38;;;284.82;;
2824;SDS011;1420;51.324;12.344;2023-02-15T00:11:58;409.10;;;383.23;;
2824;SDS011;1420;51.324;12.344;2023-02-15T00:14:26;353.95;;;329.15;;
2824;SDS011;1420;51.324;12.344;2023-02-15T00:16:53;287.05;;;268.48;;
2824;SDS011;1420;51.324;12.344;2023-02-15T00:19:20;497.43;;;464.47;;
2824;SDS011;1420;51.324;12.344;2023-02-15T00:21:48;378.93;;;355.48;;
2824;SDS011;1420;51.324;12.344;2023-02-15T00:24:17;387.47;;;364.05;;
2824;SDS011;1420;51.324;12.344;2023-02-15T00:26:44;346.90;;;324.25;;
2824;SDS011;1420;51.324;12.344;2023-02-15T00:29:11;369.68;;;346.10;;
2824;SDS011;1420;51.324;12.344;2023-02-15T00:31:38;311.95;;;291.78;;
2824;SDS011;1420;51.324;12.344;2023-02-15T00:34:07;511.85;;;477.70;;
2824;SDS011;1420;51.324;12.344;2023-02-15T00:36:34;414.73;;;388.12;;
2824;SDS011;1420;51.324;12.344;2023-02-15T00:39:01;329.52;;;307.37;;
2824;SDS011;1420;51.324;12.344;2023-02-15T00:41:28;348.13;;;326.92;;
2824;SDS011;1420;51.324;12.344;2023-02-15T00:43:55;366.72;;;342.57;;
2824;SDS011;1420;51.324;12.344;2023-02-15T00:46:23;418.40;;;392.35;;
2824;SDS011;1420;51.324;12.344;2023-02-15T00:48:50;343.78;;;321.90;;
2824;SDS011;1420;51.324;12.344;2023-02-15T00:51:17;369.67;;;343.60;;
2824;SDS011;1420;51.324;12.344;2023-02-15T00:53:44;350.73;;;329.37;;
2824;SDS011;1420;51.324;12.344;2023-02-15T00:56:12;453.13;;;425.55;;
2824;SDS011;1420;51.324;12.344;2023-02-15T00:58:40;389.88;;;364.62;;
2824;SDS011;1420;51.324;12.344;2023-02-15T01:01:08;590.53;;;553.83;;
2824;SDS011;1420;51.324;12.344;2023-02-15T01:03:35;346.30;;;324.27;;
2824;SDS011;1420;51.324;12.344;2023-02-15T01:06:02;374.00;;;350.42;;
2824;SDS011;1420;51.324;12.344;2023-02-15T01:08:30;381.13;;;356.20;;
2824;SDS011;1420;51.324;12.344;2023-02-15T01:11:02;402.13;;;374.68;;
2824;SDS011;1420;51.324;12.344;2023-02-15T01:13:24;464.62;;;435.38;;
2824;SDS011;1420;51.324;12.344;2023-02-15T01:15:53;432.22;;;403.35;;
2824;SDS011;1420;51.324;12.344;2023-02-15T01:18:20;338.68;;;317.35;;
2824;SDS011;1420;51.324;12.344;2023-02-15T01:20:47;394.77;;;367.53;;
2824;SDS011;1420;51.324;12.344;2023-02-15T01:23:14;325.25;;;303.98;;
2824;SDS011;1420;51.324;12.344;2023-02-15T01:25:41;418.22;;;391.38;;
2824;SDS011;1420;51.324;12.344;2023-02-15T01:28:09;364.93;;;341.87;;
2824;SDS011;1420;51.324;12.344;2023-02-15T01:30:37;367.65;;;344.57;;
2824;SDS011;1420;51.324;12.344;2023-02-15T01:33:04;384.07;;;360.22;;
2824;SDS011;1420;51.324;12.344;2023-02-15T01:35:32;306.07;;;287.02;;
2824;SDS011;1420;51.324;12.344;2023-02-15T01:37:59;510.30;;;477.73;;
2824;SDS011;1420;51.324;12.344;2023-02-15T01:40:26;454.93;;;426.55;;
2824;SDS011;1420;51.324;12.344;2023-02-15T01:42:54;506.05;;;470.97;;
2824;SDS011;1420;51.324;12.344;2023-02-15T01:45:24;373.92;;;350.77;;
2824;SDS011;1420;51.324;12.344;2023-02-15T01:47:52;543.22;;;508.65;;
2824;SDS011;1420;51.324;12.344;2023-02-15T01:50:25;404.63;;;379.47;;
2824;SDS011;1420;51.324;12.344;2023-02-15T01:52:57;364.70;;;341.53;;
2824;SDS011;1420;51.324;12.344;2023-02-15T01:55:26;388.13;;;363.12;;
2824;SDS011;1420;51.324;12.344;2023-02-15T01:57:52;317.97;;;297.72;;
2824;SDS011;1420;51.324;12.344;2023-02-15T02:00:21;443.18;;;414.45;;
2824;SDS011;1420;51.324;12.344;2023-02-15T02:02:49;298.60;;;278.87;;
2824;SDS011;1420;51.324;12.344;2023-02-15T02:05:15;316.03;;;292.23;;
2824;SDS011;1420;51.324;12.344;2023-02-15T02:07:43;517.30;;;481.85;;
2824;SDS011;1420;51.324;12.344;2023-02-15T02:10:12;365.87;;;342.68;;
2824;SDS011;1420;51.324;12.344;2023-02-15T02:12:37;405.10;;;379.68;;
2824;SDS011;1420;51.324;12.344;2023-02-15T02:15:04;402.12;;;376.45;;
2824;SDS011;1420;51.324;12.344;2023-02-15T02:17:36;364.73;;;342.00;;
2824;SDS011;1420;51.324;12.344;2023-02-15T02:31:24;462.18;;;435.97;;
2824;SDS011;1420;51.324;12.344;2023-02-15T02:34:05;497.63;;;467.60;;
2824;SDS011;1420;51.324;12.344;2023-02-15T02:36:40;394.73;;;370.53;;
2824;SDS011;1420;51.324;12.344;2023-02-15T02:39:29;478.45;;;450.65;;
2824;SDS011;1420;51.324;12.344;2023-02-15T02:43:02;503.80;;;473.98;;
2824;SDS011;1420;51.324;12.344;2023-02-15T02:44:47;385.42;;;362.23;;
2824;SDS011;1420;51.324;12.344;2023-02-15T02:47:16;480.17;;;452.43;;
2824;SDS011;1420;51.324;12.344;2023-02-15T02:49:42;475.08;;;448.15;;
2824;SDS011;1420;51.324;12.344;2023-02-15T02:54:49;445.60;;;420.23;;
2824;SDS011;1420;51.324;12.344;2023-02-15T02:57:17;528.82;;;499.18;;
2824;SDS011;1420;51.324;12.344;2023-02-15T02:59:44;502.85;;;474.87;;
2824;SDS011;1420;51.324;12.344;2023-02-15T03:02:13;511.17;;;480.67;;
2824;SDS011;1420;51.324;12.344;2023-02-15T03:04:39;451.48;;;423.42;;
2824;SDS011;1420;51.324;12.344;2023-02-15T03:07:07;510.17;;;480.37;;
2824;SDS011;1420;51.324;12.344;2023-02-15T03:09:36;488.58;;;458.67;;
2824;SDS011;1420;51.324;12.344;2023-02-15T03:12:01;517.07;;;487.42;;
2824;SDS011;1420;51.324;12.344;2023-02-15T03:14:30;501.45;;;472.53;;
2824;SDS011;1420;51.324;12.344;2023-02-15T03:16:57;491.93;;;464.55;;
2824;SDS011;1420;51.324;12.344;2023-02-15T03:19:26;575.15;;;542.62;;
2824;SDS011;1420;51.324;12.344;2023-02-15T03:21:55;528.38;;;498.35;;
2824;SDS011;1420;51.324;12.344;2023-02-15T03:24:26;540.70;;;508.15;;
2824;SDS011;1420;51.324;12.344;2023-02-15T03:26:53;595.12;;;561.80;;
2824;SDS011;1420;51.324;12.344;2023-02-15T03:29:22;487.32;;;457.57;;
2824;SDS011;1420;51.324;12.344;2023-02-15T03:31:50;493.57;;;464.33;;
2824;SDS011;1420;51.324;12.344;2023-02-15T03:34:15;517.52;;;487.42;;
2824;SDS011;1420;51.324;12.344;2023-02-15T03:36:45;488.22;;;459.17;;
2824;SDS011;1420;51.324;12.344;2023-02-15T03:39:45;502.40;;;472.23;;
2824;SDS011;1420;51.324;12.344;2023-02-15T03:42:04;586.48;;;552.88;;
2824;SDS011;1420;51.324;12.344;2023-02-15T03:44:27;503.15;;;474.40;;
2824;SDS011;1420;51.324;12.344;2023-02-15T03:46:56;576.98;;;542.88;;
2824;SDS011;1420;51.324;12.344;2023-02-15T03:49:22;469.37;;;442.12;;
2824;SDS011;1420;51.324;12.344;2023-02-15T03:51:51;472.70;;;443.87;;
2824;SDS011;1420;51.324;12.344;2023-02-15T03:54:21;639.25;;;600.57;;
2824;SDS011;1420;51.324;12.344;2023-02-15T03:57:15;449.43;;;424.00;;
2824;SDS011;1420;51.324;12.344;2023-02-15T03:59:47;503.42;;;474.40;;
2824;SDS011;1420;51.324;12.344;2023-02-15T04:02:21;625.38;;;586.92;;
2824;SDS011;1420;51.324;12.344;2023-02-15T04:04:48;521.93;;;491.65;;
2824;SDS011;1420;51.324;12.344;2023-02-15T04:07:16;445.82;;;419.83;;
2824;SDS011;1420;51.324;12.344;2023-02-15T04:09:44;467.40;;;440.27;;
2824;SDS011;1420;51.324;12.344;2023-02-15T04:12:17;477.70;;;449.97;;
2824;SDS011;1420;51.324;12.344;2023-02-15T04:14:45;486.92;;;458.87;;
2824;SDS011;1420;51.324;12.344;2023-02-15T04:17:17;441.47;;;416.30;;
2824;SDS011;1420;51.324;12.344;2023-02-15T04:19:45;503.22;;;474.68;;
2824;SDS011;1420;51.324;12.344;2023-02-15T04:22:17;435.00;;;410.43;;
2824;SDS011;1420;51.324;12.344;2023-02-15T04:24:51;429.93;;;404.50;;
2824;SDS011;1420;51.324;12.344;2023-02-15T04:27:24;386.95;;;365.15;;
2824;SDS011;1420;51.324;12.344;2023-02-15T04:29:51;424.85;;;401.00;;
2824;SDS011;1420;51.324;12.344;2023-02-15T04:32:18;461.73;;;436.28;;
2824;SDS011;1420;51.324;12.344;2023-02-15T04:34:45;437.50;;;412.73;;
2824;SDS011;1420;51.324;12.344;2023-02-15T04:37:13;483.37;;;456.37;;
2824;SDS011;1420;51.324;12.344;2023-02-15T04:39:41;470.30;;;442.62;;
2824;SDS011;1420;51.324;12.344;2023-02-15T04:42:08;389.18;;;367.15;;
2824;SDS011;1420;51.324;12.344;2023-02-15T04:44:35;462.85;;;437.43;;
2824;SDS011;1420;51.324;12.344;2023-02-15T04:47:02;590.83;;;556.18;;
2824;SDS011;1420;51.324;12.344;2023-02-15T04:49:30;471.22;;;444.73;;
2824;SDS011;1420;51.324;12.344;2023-02-15T04:51:57;585.72;;;549.53;;
2824;SDS011;1420;51.324;12.344;2023-02-15T04:54:24;528.17;;;498.00;;
2824;SDS011;1420;51.324;12.344;2023-02-15T04:56:51;586.63;;;552.10;;
2824;SDS011;1420;51.324;12.344;2023-02-15T04:59:19;484.48;;;455.98;;
2824;SDS011;1420;51.324;12.344;2023-02-15T05:01:47;568.17;;;534.58;;
2824;SDS011;1420;51.324;12.344;2023-02-15T05:04:14;573.77;;;541.48;;
2824;SDS011;1420;51.324;12.344;2023-02-15T05:06:42;604.62;;;569.88;;
2824;SDS011;1420;51.324;12.344;2023-02-15T05:09:10;485.55;;;456.92;;
2824;SDS011;1420;51.324;12.344;2023-02-15T05:11:37;554.02;;;520.73;;
2824;SDS011;1420;51.324;12.344;2023-02-15T05:14:05;533.67;;;502.42;;
2824;SDS011;1420;51.324;12.344;2023-02-15T05:16:33;488.77;;;461.95;;
2824;SDS011;1420;51.324;12.344;2023-02-15T05:19:00;532.25;;;501.40;;
2824;SDS011;1420;51.324;12.344;2023-02-15T05:21:27;605.07;;;569.55;;
2824;SDS011;1420;51.324;12.344;2023-02-15T05:23:54;511.50;;;482.92;;
2824;SDS011;1420;51.324;12.344;2023-02-15T05:26:23;412.92;;;388.78;;
2824;SDS011;1420;51.324;12.344;2023-02-15T05:28:55;497.62;;;468.17;;
2824;SDS011;1420;51.324;12.344;2023-02-15T05:31:22;648.45;;;609.90;;
2824;SDS011;1420;51.324;12.344;2023-02-15T05:33:50;455.27;;;428.43;;
2824;SDS011;1420;51.324;12.344;2023-02-15T05:36:18;602.83;;;567.28;;
2824;SDS011;1420;51.324;12.344;2023-02-15T05:38:46;460.60;;;434.32;;
2824;SDS011;1420;51.324;12.344;2023-02-15T05:41:13;602.53;;;566.20;;
2824;SDS011;1420;51.324;12.344;2023-02-15T05:43:40;540.30;;;508.12;;
2824;SDS011;1420;51.324;12.344;2023-02-15T05:46:08;494.73;;;466.37;;
2824;SDS011;1420;51.324;12.344;2023-02-15T05:48:35;534.62;;;501.47;;
2824;SDS011;1420;51.324;12.344;2023-02-15T05:51:04;443.22;;;418.95;;
2824;SDS011;1420;51.324;12.344;2023-02-15T05:53:32;410.52;;;388.42;;
2824;SDS011;1420;51.324;12.344;2023-02-15T05:56:00;458.02;;;431.22;;
2824;SDS011;1420;51.324;12.344;2023-02-15T05:58:29;476.15;;;450.15;;
2824;SDS011;1420;51.324;12.344;2023-02-15T06:00:56;510.53;;;482.57;;
2824;SDS011;1420;51.324;12.344;2023-02-15T06:03:24;521.20;;;491.67;;
2824;SDS011;1420;51.324;12.344;2023-02-15T06:05:51;562.77;;;530.82;;
2824;SDS011;1420;51.324;12.344;2023-02-15T06:08:18;577.15;;;545.32;;
2824;SDS011;1420;51.324;12.344;2023-02-15T06:10:45;547.18;;;515.98;;
2824;SDS011;1420;51.324;12.344;2023-02-15T06:13:13;480.92;;;453.10;;
2824;SDS011;1420;51.324;12.344;2023-02-15T06:15:40;463.95;;;437.92;;
2824;SDS011;1420;51.324;12.344;2023-02-15T06:18:08;507.40;;;478.68;;
2824;SDS011;1420;51.324;12.344;2023-02-15T06:20:35;501.38;;;473.10;;
2824;SDS011;1420;51.324;12.344;2023-02-15T06:23:03;467.67;;;440.82;;
2824;SDS011;1420;51.324;12.344;2023-02-15T06:25:31;507.82;;;478.43;;
2824;SDS011;1420;51.324;12.344;2023-02-15T06:27:58;445.88;;;421.55;;
2824;SDS011;1420;51.324;12.344;2023-02-15T06:30:25;496.88;;;469.10;;
2824;SDS011;1420;51.324;12.344;2023-02-15T06:32:52;456.37;;;430.70;;
2824;SDS011;1420;51.324;12.344;2023-02-15T06:35:20;575.45;;;541.38;;
2824;SDS011;1420;51.324;12.344;2023-02-15T06:37:48;466.60;;;441.95;;
2824;SDS011;1420;51.324;12.344;2023-02-15T06:40:15;438.18;;;413.47;;
2824;SDS011;1420;51.324;12.344;2023-02-15T06:42:42;531.48;;;499.97;;
2824;SDS011;1420;51.324;12.344;2023-02-15T06:45:10;555.00;;;522.45;;
2824;SDS011;1420;51.324;12.344;2023-02-15T06:47:38;645.43;;;609.35;;
2824;SDS011;1420;51.324;12.344;2023-02-15T06:50:06;515.68;;;485.37;;
2824;SDS011;1420;51.324;12.344;2023-02-15T06:52:34;430.33;;;404.60;;
2824;SDS011;1420;51.324;12.344;2023-02-15T06:55:02;421.45;;;395.48;;
2824;SDS011;1420;51.324;12.344;2023-02-15T06:57:29;430.23;;;402.50;;
2824;SDS011;1420;51.324;12.344;2023-02-15T06:59:56;435.55;;;410.25;;
2824;SDS011;1420;51.324;12.344;2023-02-15T07:02:23;386.25;;;364.17;;
2824;SDS011;1420;51.324;12.344;2023-02-15T07:04:50;449.97;;;422.97;;
2824;SDS011;1420;51.324;12.344;2023-02-15T07:07:18;475.12;;;446.80;;
2824;SDS011;1420;51.324;12.344;2023-02-15T07:09:46;315.15;;;296.58;;
2824;SDS011;1420;51.324;12.344;2023-02-15T07:12:13;482.68;;;452.35;;
2824;SDS011;1420;51.324;12.344;2023-02-15T07:14:46;541.00;;;507.55;;
2824;SDS011;1420;51.324;12.344;2023-02-15T07:17:14;415.50;;;389.52;;
2824;SDS011;1420;51.324;12.344;2023-02-15T07:19:42;286.45;;;268.33;;
2824;SDS011;1420;51.324;12.344;2023-02-15T07:22:10;271.90;;;256.78;;
2824;SDS011;1420;51.324;12.344;2023-02-15T07:24:37;144.20;;;132.77;;
2824;SDS011;1420;51.324;12.344;2023-02-15T07:27:05;82.68;;;75.68;;
2824;SDS011;1420;51.324;12.344;2023-02-15T07:29:31;35.15;;;25.65;;
2824;SDS011;1420;51.324;12.344;2023-02-15T07:31:58;28.93;;;10.28;;
2824;SDS011;1420;51.324;12.344;2023-02-15T07:34:26;27.90;;;9.32;;
2824;SDS011;1420;51.324;12.344;2023-02-15T07:36:53;27.80;;;7.98;;
2824;SDS011;1420;51.324;12.344;2023-02-15T07:39:20;33.15;;;9.73;;
2824;SDS011;1420;51.324;12.344;2023-02-15T07:41:47;34.88;;;12.52;;
2824;SDS011;1420;51.324;12.344;2023-02-15T07:44:15;34.63;;;14.72;;
2824;SDS011;1420;51.324;12.344;2023-02-15T07:46:42;29.37;;;9.32;;
2824;SDS011;1420;51.324;12.344;2023-02-15T07:49:10;33.88;;;16.22;;
2824;SDS011;1420;51.324;12.344;2023-02-15T07:51:38;33.25;;;12.95;;
2824;SDS011;1420;51.324;12.344;2023-02-15T07:54:05;39.80;;;19.05;;
2824;SDS011;1420;51.324;12.344;2023-02-15T07:56:33;42.00;;;19.36;;
2824;SDS011;1420;51.324;12.344;2023-02-15T07:59:00;51.22;;;44.64;;
2824;SDS011;1420;51.324;12.344;2023-02-15T08:01:29;38.42;;;16.94;;
2824;SDS011;1420;51.324;12.344;2023-02-15T08:03:55;38.38;;;17.98;;
2824;SDS011;1420;51.324;12.344;2023-02-15T08:06:23;45.62;;;26.76;;
2824;SDS011;1420;51.324;12.344;2023-02-15T08:08:50;57.94;;;49.82;;
2824;SDS011;1420;51.324;12.344;2023-02-15T08:11:21;50.28;;;36.60;;
2824;SDS011;1420;51.324;12.344;2023-02-15T08:13:53;53.66;;;47.44;;
2824;SDS011;1420;51.324;12.344;2023-02-15T08:16:23;84.62;;;77.42;;
2824;SDS011;1420;51.324;12.344;2023-02-15T08:18:52;94.24;;;86.56;;
2824;SDS011;1420;51.324;12.344;2023-02-15T08:21:21;66.40;;;59.72;;
2824;SDS011;1420;51.324;12.344;2023-02-15T08:23:47;77.64;;;70.98;;
2824;SDS011;1420;51.324;12.344;2023-02-15T08:26:15;100.26;;;92.38;;
2824;SDS011;1420;51.324;12.344;2023-02-15T08:28:43;138.46;;;128.84;;
2824;SDS011;1420;51.324;12.344;2023-02-15T08:31:11;223.38;;;210.98;;
2824;SDS011;1420;51.324;12.344;2023-02-15T08:33:39;253.18;;;239.44;;
2824;SDS011;1420;51.324;12.344;2023-02-15T08:36:07;208.30;;;196.30;;
2824;SDS011;1420;51.324;12.344;2023-02-15T08:38:34;226.40;;;213.94;;
2824;SDS011;1420;51.324;12.344;2023-02-15T08:43:36;196.46;;;185.08;;
2824;SDS011;1420;51.324;12.344;2023-02-15T08:46:03;92.22;;;84.98;;
2824;SDS011;1420;51.324;12.344;2023-02-15T08:48:30;95.56;;;88.14;;
2824;SDS011;1420;51.324;12.344;2023-02-15T08:50:57;196.46;;;185.18;;
2824;SDS011;1420;51.324;12.344;2023-02-15T08:53:25;151.30;;;141.86;;
2824;SDS011;1420;51.324;12.344;2023-02-15T08:55:55;175.44;;;165.18;;
2824;SDS011;1420;51.324;12.344;2023-02-15T08:58:22;268.04;;;254.06;;
2824;SDS011;1420;51.324;12.344;2023-02-15T09:00:50;250.30;;;237.24;;
2824;SDS011;1420;51.324;12.344;2023-02-15T09:03:17;238.60;;;226.14;;
2824;SDS011;1420;51.324;12.344;2023-02-15T09:05:44;265.18;;;251.74;;
2824;SDS011;1420;51.324;12.344;2023-02-15T09:08:12;278.02;;;263.82;;
2824;SDS011;1420;51.324;12.344;2023-02-15T09:10:39;283.80;;;269.40;;
2824;SDS011;1420;51.324;12.344;2023-02-15T09:13:06;276.82;;;262.98;;
2824;SDS011;1420;51.324;12.344;2023-02-15T09:15:33;271.30;;;257.52;;
2824;SDS011;1420;51.324;12.344;2023-02-15T09:18:01;289.66;;;275.34;;
2824;SDS011;1420;51.324;12.344;2023-02-15T09:20:29;384.22;;;366.08;;
2824;SDS011;1420;51.324;12.344;2023-02-15T09:22:57;393.40;;;374.40;;
2824;SDS011;1420;51.324;12.344;2023-02-15T09:25:25;402.60;;;383.22;;
2824;SDS011;1420;51.324;12.344;2023-02-15T09:27:53;399.92;;;380.56;;
2824;SDS011;1420;51.324;12.344;2023-02-15T09:30:20;418.96;;;398.92;;
2824;SDS011;1420;51.324;12.344;2023-02-15T09:32:47;406.98;;;387.50;;
2824;SDS011;1420;51.324;12.344;2023-02-15T09:35:14;405.98;;;386.42;;
2824;SDS011;1420;51.324;12.344;2023-02-15T09:37:41;410.12;;;390.82;;
2824;SDS011;1420;51.324;12.344;2023-02-15T09:40:11;400.28;;;381.08;;
2824;SDS011;1420;51.324;12.344;2023-02-15T09:42:41;386.78;;;368.22;;
2824;SDS011;1420;51.324;12.344;2023-02-15T09:45:16;415.96;;;396.04;;
2824;SDS011;1420;51.324;12.344;2023-02-15T09:48:05;395.86;;;376.40;;
2824;SDS011;1420;51.324;12.344;2023-02-15T09:50:50;397.44;;;378.68;;
2824;SDS011;1420;51.324;12.344;2023-02-15T09:53:18;386.02;;;367.80;;
2824;SDS011;1420;51.324;12.344;2023-02-15T09:55:55;351.94;;;334.80;;
2824;SDS011;1420;51.324;12.344;2023-02-15T09:58:40;411.44;;;391.86;;
2824;SDS011;1420;51.324;12.344;2023-02-15T10:01:27;518.84;;;491.74;;
2824;SDS011;1420;51.324;12.344;2023-02-15T10:04:00;346.62;;;328.84;;
2824;SDS011;1420;51.324;12.344;2023-02-15T10:06:34;349.80;;;332.98;;
2824;SDS011;1420;51.324;12.344;2023-02-15T10:09:36;355.32;;;338.64;;
2824;SDS011;1420;51.324;12.344;2023-02-15T10:14:31;304.90;;;289.76;;
2824;SDS011;1420;51.324;12.344;2023-02-15T10:17:13;276.38;;;262.40;;
2824;SDS011;1420;51.324;12.344;2023-02-15T10:19:47;106.92;;;99.16;;
2824;SDS011;1420;51.324;12.344;2023-02-15T10:22:18;311.60;;;296.36;;
2824;SDS011;1420;51.324;12.344;2023-02-15T10:24:48;345.96;;;329.34;;
2824;SDS011;1420;51.324;12.344;2023-02-15T10:27:15;386.24;;;367.22;;
2824;SDS011;1420;51.324;12.344;2023-02-15T10:29:44;323.60;;;307.58;;
2824;SDS011;1420;51.324;12.344;2023-02-15T10:32:22;357.96;;;340.98;;
2824;SDS011;1420;51.324;12.344;2023-02-15T10:34:58;325.32;;;309.98;;
2824;SDS011;1420;51.324;12.344;2023-02-15T10:37:41;222.94;;;211.22;;
2824;SDS011;1420;51.324;12.344;2023-02-15T10:40:18;353.22;;;336.46;;
2824;SDS011;1420;51.324;12.344;2023-02-15T10:45:21;170.28;;;160.18;;
2824;SDS011;1420;51.324;12.344;2023-02-15T10:48:03;208.32;;;197.28;;
2824;SDS011;1420;51.324;12.344;2023-02-15T10:50:48;161.08;;;151.56;;
2824;SDS011;1420;51.324;12.344;2023-02-15T10:55:58;329.22;;;313.22;;
2824;SDS011;1420;51.324;12.344;2023-02-15T11:01:15;230.48;;;218.70;;
2824;SDS011;1420;51.324;12.344;2023-02-15T11:03:49;134.80;;;126.26;;
2824;SDS011;1420;51.324;12.344;2023-02-15T11:06:28;95.58;;;88.56;;
2824;SDS011;1420;51.324;12.344;2023-02-15T11:08:57;69.68;;;63.48;;
2824;SDS011;1420;51.324;12.344;2023-02-15T11:11:32;64.74;;;59.00;;
2824;SDS011;1420;51.324;12.344;2023-02-15T11:14:00;110.42;;;103.10;;
2824;SDS011;1420;51.324;12.344;2023-02-15T11:16:28;259.88;;;246.68;;
2824;SDS011;1420;51.324;12.344;2023-02-15T11:18:56;309.56;;;294.52;;
2824;SDS011;1420;51.324;12.344;2023-02-15T11:21:24;324.20;;;308.10;;
2824;SDS011;1420;51.324;12.344;2023-02-15T11:23:51;443.70;;;421.56;;
2824;SDS011;1420;51.324;12.344;2023-02-15T11:26:21;405.60;;;385.90;;
2824;SDS011;1420;51.324;12.344;2023-02-15T11:28:48;764.66;;;720.36;;
2824;SDS011;1420;51.324;12.344;2023-02-15T11:31:17;988.92;;;925.32;;
2824;SDS011;1420;51.324;12.344;2023-02-15T11:33:45;659.92;;;621.84;;
2824;SDS011;1420;51.324;12.344;2023-02-15T11:36:13;628.18;;;592.80;;
2824;SDS011;1420;51.324;12.344;2023-02-15T11:38:39;671.46;;;634.48;;
2824;SDS011;1420;51.324;12.344;2023-02-15T11:41:09;625.84;;;592.54;;
2824;SDS011;1420;51.324;12.344;2023-02-15T11:43:42;633.96;;;601.06;;
2824;SDS011;1420;51.324;12.344;2023-02-15T11:46:11;636.58;;;604.12;;
2824;SDS011;1420;51.324;12.344;2023-02-15T11:48:37;661.02;;;626.60;;
2824;SDS011;1420;51.324;12.344;2023-02-15T11:51:05;580.10;;;550.38;;
2824;SDS011;1420;51.324;12.344;2023-02-15T11:53:33;588.24;;;558.90;;
2824;SDS011;1420;51.324;12.344;2023-02-15T11:56:00;494.22;;;468.92;;
2824;SDS011;1420;51.324;12.344;2023-02-15T11:58:44;560.98;;;533.32;;
2824;SDS011;1420;51.324;12.344;2023-02-15T12:01:16;516.42;;;490.84;;
2824;SDS011;1420;51.324;12.344;2023-02-15T12:03:45;510.64;;;485.08;;
2824;SDS011;1420;51.324;12.344;2023-02-15T12:06:20;610.44;;;577.96;;
2824;SDS011;1420;51.324;12.344;2023-02-15T12:08:53;481.26;;;456.82;;
2824;SDS011;1420;51.324;12.344;2023-02-15T12:11:32;385.82;;;366.06;;
2824;SDS011;1420;51.324;12.344;2023-02-15T12:14:07;358.02;;;340.02;;
2824;SDS011;1420;51.324;12.344;2023-02-15T12:16:34;228.52;;;216.02;;
2824;SDS011;1420;51.324;12.344;2023-02-15T12:19:01;161.63;;;150.90;;
2824;SDS011;1420;51.324;12.344;2023-02-15T12:21:29;143.17;;;133.52;;
2824;SDS011;1420;51.324;12.344;2023-02-15T12:23:57;134.73;;;125.37;;
2824;SDS011;1420;51.324;12.344;2023-02-15T12:26:24;109.10;;;101.23;;
2824;SDS011;1420;51.324;12.344;2023-02-15T12:28:51;85.13;;;77.83;;
2824;SDS011;1420;51.324;12.344;2023-02-15T12:31:25;97.52;;;89.58;;
2824;SDS011;1420;51.324;12.344;2023-02-15T12:33:52;55.13;;;49.22;;
2824;SDS011;1420;51.324;12.344;2023-02-15T12:36:21;81.93;;;74.75;;
2824;SDS011;1420;51.324;12.344;2023-02-15T12:41:27;64.50;;;57.88;;
2824;SDS011;1420;51.324;12.344;2023-02-15T12:46:32;67.00;;;60.32;;
2824;SDS011;1420;51.324;12.344;2023-02-15T12:49:07;66.48;;;59.55;;
2824;SDS011;1420;51.324;12.344;2023-02-15T12:54:33;71.47;;;64.58;;
2824;SDS011;1420;51.324;12.344;2023-02-15T13:02:18;69.27;;;62.00;;
2824;SDS011;1420;51.324;12.344;2023-02-15T13:04:47;80.40;;;72.83;;
2824;SDS011;1420;51.324;12.344;2023-02-15T13:07:11;65.77;;;58.95;;
2824;SDS011;1420;51.324;12.344;2023-02-15T13:09:39;70.53;;;63.47;;
2824;SDS011;1420;51.324;12.344;2023-02-15T13:14:46;72.85;;;65.73;;
2824;SDS011;1420;51.324;12.344;2023-02-15T13:17:13;72.63;;;65.37;;
2824;SDS011;1420;51.324;12.344;2023-02-15T13:19:43;66.78;;;59.80;;
2824;SDS011;1420;51.324;12.344;2023-02-15T13:22:13;81.18;;;73.85;;
2824;SDS011;1420;51.324;12.344;2023-02-15T13:24:43;75.38;;;68.20;;
2824;SDS011;1420;51.324;12.344;2023-02-15T13:27:12;70.63;;;63.62;;
2824;SDS011;1420;51.324;12.344;2023-02-15T13:29:38;73.42;;;66.23;;
2824;SDS011;1420;51.324;12.344;2023-02-15T13:32:10;81.70;;;74.10;;
2824;SDS011;1420;51.324;12.344;2023-02-15T13:34:36;114.32;;;105.58;;
2824;SDS011;1420;51.324;12.344;2023-02-15T13:37:05;90.80;;;82.82;;
2824;SDS011;1420;51.324;12.344;2023-02-15T13:39:44;71.43;;;63.93;;
2824;SDS011;1420;51.324;12.344;2023-02-15T13:42:32;95.85;;;87.60;;
2824;SDS011;1420;51.324;12.344;2023-02-15T13:47:45;92.63;;;83.98;;
2824;SDS011;1420;51.324;12.344;2023-02-15T13:50:28;126.30;;;116.72;;
2824;SDS011;1420;51.324;12.344;2023-02-15T13:53:17;82.26;;;74.62;;
2824;SDS011;1420;51.324;12.344;2023-02-15T13:55:44;84.92;;;76.72;;
2824;SDS011;1420;51.324;12.344;2023-02-15T14:04:00;99.07;;;90.97;;
2824;SDS011;1420;51.324;12.344;2023-02-15T14:09:13;124.63;;;115.20;;
2824;SDS011;1420;51.324;12.344;2023-02-15T14:11:52;130.07;;;120.85;;
2824;SDS011;1420;51.324;12.344;2023-02-15T14:14:23;120.73;;;111.88;;
2824;SDS011;1420;51.324;12.344;2023-02-15T14:17:03;116.63;;;107.73;;
2824;SDS011;1420;51.324;12.344;2023-02-15T14:19:35;127.40;;;117.96;;
2824;SDS011;1420;51.324;12.344;2023-02-15T14:22:09;148.93;;;138.88;;
2824;SDS011;1420;51.324;12.344;2023-02-15T14:24:45;148.36;;;138.24;;
2824;SDS011;1420;51.324;12.344;2023-02-15T14:27:20;161.50;;;150.80;;
2824;SDS011;1420;51.324;12.344;2023-02-15T14:29:56;193.63;;;181.32;;
2824;SDS011;1420;51.324;12.344;2023-02-15T14:32:28;234.47;;;220.68;;
2824;SDS011;1420;51.324;12.344;2023-02-15T14:34:55;148.68;;;138.00;;
2824;SDS011;1420;51.324;12.344;2023-02-15T14:37:27;191.08;;;179.38;;
2824;SDS011;1420;51.324;12.344;2023-02-15T14:40:08;174.80;;;163.33;;
2824;SDS011;1420;51.324;12.344;2023-02-15T14:42:44;169.00;;;158.08;;
2824;SDS011;1420;51.324;12.344;2023-02-15T14:45:48;170.18;;;159.42;;
2824;SDS011;1420;51.324;12.344;2023-02-15T14:48:03;167.40;;;156.55;;
2824;SDS011;1420;51.324;12.344;2023-02-15T14:50:38;144.80;;;134.87;;
2824;SDS011;1420;51.324;12.344;2023-02-15T14:55:45;138.10;;;128.53;;
2824;SDS011;1420;51.324;12.344;2023-02-15T14:58:12;153.47;;;143.57;;
2824;SDS011;1420;51.324;12.344;2023-02-15T15:00:40;156.12;;;145.73;;
2824;SDS011;1420;51.324;12.344;2023-02-15T15:03:10;145.62;;;135.80;;
2824;SDS011;1420;51.324;12.344;2023-02-15T15:05:37;162.95;;;152.28;;
2824;SDS011;1420;51.324;12.344;2023-02-15T15:08:04;195.04;;;183.32;;
2824;SDS011;1420;51.324;12.344;2023-02-15T15:10:34;164.56;;;153.70;;
2824;SDS011;1420;51.324;12.344;2023-02-15T15:13:34;165.37;;;154.62;;
2824;SDS011;1420;51.324;12.344;2023-02-15T15:15:44;161.27;;;150.48;;
2824;SDS011;1420;51.324;12.344;2023-02-15T15:18:42;157.84;;;147.64;;
2824;SDS011;1420;51.324;12.344;2023-02-15T15:20:46;133.65;;;124.33;;
2824;SDS011;1420;51.324;12.344;2023-02-15T15:28:54;122.75;;;114.07;;
2824;SDS011;1420;51.324;12.344;2023-02-15T15:36:58;120.37;;;111.50;;